sensor_id;sensor_type;location;lat;lon;timestamp;temperature;humidity
41939;DHT22;23057;48.554;14.454;2023-02-05T00:01:06;-2.40;99.90
41939;DHT22;23057;48.554;14.454;2023-02-05T00:03:37;-2.30;99.90
41939;DHT22;23057;48.554;14.454;2023-02-05T00:06:08;-2.40;99.90
41939;DHT22;23057;48.554;14.454;2023-02-05T00:08:39;-2.50;1.00
41939;DHT22;23057;48.554;14.454;2023-02-05T00:11:10;-2.60;99.90
41939;DHT22;23057;48.554;14.454;2023-02-05T00:13:41;-2.70;99.90
41939;DHT22;23057;48.554;14.454;2023-02-05T00:16:13;-2.60;99.90
41939;DHT22;23057;48.554;14.454;2023-02-05T00:18:47;-2.60;99.90
41939;DHT22;23057;48.554;14.454;2023-02-05T00:21:19;-2.60;99.90
41939;DHT22;23057;48.554;14.454;2023-02-05T00:23:52;-2.60;49.90
41939;DHT22;23057;48.554;14.454;2023-02-05T00:26:23;-2.50;1.00
41939;DHT22;23057;48.554;14.454;2023-02-05T00:28:53;-2.50;1.00
41939;DHT22;23057;48.554;14.454;2023-02-05T00:31:24;-2.50;99.90
41939;DHT22;23057;48.554;14.454;2023-02-05T00:33:55;-2.50;99.90
41939;DHT22;23057;48.554;14.454;2023-02-05T00:36:27;-2.50;99.90
41939;DHT22;23057;48.554;14.454;2023-02-05T00:38:58;-2.50;99.90
41939;DHT22;23057;48.554;14.454;2023-02-05T00:41:28;-2.50;99.90
41939;DHT22;23057;48.554;14.454;2023-02-05T00:43:59;-2.50;99.90
41939;DHT22;23057;48.554;14.454;2023-02-05T00:46:30;-2.50;99.90
41939;DHT22;23057;48.554;14.454;2023-02-05T00:49:01;-2.50;99.90
41939;DHT22;23057;48.554;14.454;2023-02-05T00:51:31;-2.50;99.90
41939;DHT22;23057;48.554;14.454;2023-02-05T00:54:02;-2.50;99.90
41939;DHT22;23057;48.554;14.454;2023-02-05T00:56:33;-2.50;99.90
41939;DHT22;23057;48.554;14.454;2023-02-05T00:59:04;-2.50;1.00
41939;DHT22;23057;48.554;14.454;2023-02-05T01:01:34;-2.50;1.00
41939;DHT22;23057;48.554;14.454;2023-02-05T01:04:05;-2.60;26.50
41939;DHT22;23057;48.554;14.454;2023-02-05T01:06:36;-2.60;58.00
41939;DHT22;23057;48.554;14.454;2023-02-05T01:09:06;-2.70;92.80
41939;DHT22;23057;48.554;14.454;2023-02-05T01:11:37;-2.70;99.90
41939;DHT22;23057;48.554;14.454;2023-02-05T01:14:08;-2.70;99.90
41939;DHT22;23057;48.554;14.454;2023-02-05T01:16:39;-2.60;99.90
41939;DHT22;23057;48.554;14.454;2023-02-05T01:19:10;-2.60;99.10
41939;DHT22;23057;48.554;14.454;2023-02-05T01:21:40;-2.60;95.10
41939;DHT22;23057;48.554;14.454;2023-02-05T01:24:11;-2.60;99.90
41939;DHT22;23057;48.554;14.454;2023-02-05T01:26:42;-2.60;99.90
41939;DHT22;23057;48.554;14.454;2023-02-05T01:29:13;-2.60;99.90
41939;DHT22;23057;48.554;14.454;2023-02-05T01:31:43;-2.60;99.90
41939;DHT22;23057;48.554;14.454;2023-02-05T01:34:14;-2.60;99.90
41939;DHT22;23057;48.554;14.454;2023-02-05T01:36:45;-2.70;99.90
41939;DHT22;23057;48.554;14.454;2023-02-05T01:39:17;-2.70;99.90
41939;DHT22;23057;48.554;14.454;2023-02-05T01:41:47;-2.80;99.90
41939;DHT22;23057;48.554;14.454;2023-02-05T01:44:19;-2.80;99.90
41939;DHT22;23057;48.554;14.454;2023-02-05T01:46:54;-2.90;99.90
41939;DHT22;23057;48.554;14.454;2023-02-05T01:49:30;-2.90;99.90
41939;DHT22;23057;48.554;14.454;2023-02-05T01:52:12;-2.90;99.90
41939;DHT22;23057;48.554;14.454;2023-02-05T01:54:46;-2.90;99.90
41939;DHT22;23057;48.554;14.454;2023-02-05T01:57:22;-2.90;99.90
41939;DHT22;23057;48.554;14.454;2023-02-05T01:59:55;-2.80;99.90
41939;DHT22;23057;48.554;14.454;2023-02-05T02:02:27;-2.90;99.90
41939;DHT22;23057;48.554;14.454;2023-02-05T02:05:00;-2.90;99.90
41939;DHT22;23057;48.554;14.454;2023-02-05T02:07:38;-2.90;99.90
41939;DHT22;23057;48.554;14.454;2023-02-05T02:10:12;-2.80;99.90
41939;DHT22;23057;48.554;14.454;2023-02-05T02:12:47;-2.80;99.90
41939;DHT22;23057;48.554;14.454;2023-02-05T02:15:20;-2.80;99.90
41939;DHT22;23057;48.554;14.454;2023-02-05T02:17:56;-2.80;99.90
41939;DHT22;23057;48.554;14.454;2023-02-05T02:30:29;-2.90;99.90
41939;DHT22;23057;48.554;14.454;2023-02-05T02:33:27;-2.90;99.90
41939;DHT22;23057;48.554;14.454;2023-02-05T02:38:48;-2.90;10.50
41939;DHT22;23057;48.554;14.454;2023-02-05T02:44:25;-2.90;99.90
41939;DHT22;23057;48.554;14.454;2023-02-05T02:47:09;-3.00;99.90
41939;DHT22;23057;48.554;14.454;2023-02-05T02:49:49;-2.90;33.40
41939;DHT22;23057;48.554;14.454;2023-02-05T02:52:27;-2.90;57.60
41939;DHT22;23057;48.554;14.454;2023-02-05T02:55:04;-3.00;99.90
41939;DHT22;23057;48.554;14.454;2023-02-05T02:57:40;-3.10;99.90
41939;DHT22;23057;48.554;14.454;2023-02-05T03:00:16;-3.10;99.90
41939;DHT22;23057;48.554;14.454;2023-02-05T03:02:56;-3.20;99.90
41939;DHT22;23057;48.554;14.454;2023-02-05T03:05:34;-3.30;99.90
41939;DHT22;23057;48.554;14.454;2023-02-05T03:08:08;-3.40;99.90
41939;DHT22;23057;48.554;14.454;2023-02-05T03:11:00;-3.40;99.90
41939;DHT22;23057;48.554;14.454;2023-02-05T03:13:38;-3.50;99.90
41939;DHT22;23057;48.554;14.454;2023-02-05T03:16:10;-3.40;99.90
41939;DHT22;23057;48.554;14.454;2023-02-05T03:18:43;-3.40;99.90
41939;DHT22;23057;48.554;14.454;2023-02-05T03:21:17;-3.50;99.90
41939;DHT22;23057;48.554;14.454;2023-02-05T03:23:55;-3.50;99.90
41939;DHT22;23057;48.554;14.454;2023-02-05T03:26:27;-3.40;99.90
41939;DHT22;23057;48.554;14.454;2023-02-05T03:29:08;-3.40;99.90
41939;DHT22;23057;48.554;14.454;2023-02-05T03:40:58;-3.60;99.90
41939;DHT22;23057;48.554;14.454;2023-02-05T03:43:55;-3.60;99.90
41939;DHT22;23057;48.554;14.454;2023-02-05T03:46:43;-3.60;99.90
41939;DHT22;23057;48.554;14.454;2023-02-05T03:49:41;-3.60;1.00
41939;DHT22;23057;48.554;14.454;2023-02-05T03:52:40;-3.60;1.00
41939;DHT22;23057;48.554;14.454;2023-02-05T03:55:27;-3.70;1.00
41939;DHT22;23057;48.554;14.454;2023-02-05T03:58:16;-3.70;1.00
41939;DHT22;23057;48.554;14.454;2023-02-05T04:00:58;-3.70;1.00
41939;DHT22;23057;48.554;14.454;2023-02-05T04:03:30;-3.70;1.00
41939;DHT22;23057;48.554;14.454;2023-02-05T04:06:01;-3.70;1.00
41939;DHT22;23057;48.554;14.454;2023-02-05T04:08:32;-3.70;1.00
41939;DHT22;23057;48.554;14.454;2023-02-05T04:11:03;-3.70;1.00
41939;DHT22;23057;48.554;14.454;2023-02-05T04:13:34;-3.70;1.00
41939;DHT22;23057;48.554;14.454;2023-02-05T04:16:05;-3.70;1.00
41939;DHT22;23057;48.554;14.454;2023-02-05T04:18:36;-3.70;1.00
41939;DHT22;23057;48.554;14.454;2023-02-05T04:21:06;-3.80;1.00
41939;DHT22;23057;48.554;14.454;2023-02-05T04:23:37;-3.90;1.00
41939;DHT22;23057;48.554;14.454;2023-02-05T04:26:08;-3.90;11.60
41939;DHT22;23057;48.554;14.454;2023-02-05T04:28:39;-3.80;11.30
41939;DHT22;23057;48.554;14.454;2023-02-05T04:31:10;-3.80;7.50
41939;DHT22;23057;48.554;14.454;2023-02-05T04:33:41;-3.70;1.00
41939;DHT22;23057;48.554;14.454;2023-02-05T04:36:12;-3.70;1.00
41939;DHT22;23057;48.554;14.454;2023-02-05T04:38:43;-3.70;4.00
41939;DHT22;23057;48.554;14.454;2023-02-05T04:41:14;-3.70;18.80
41939;DHT22;23057;48.554;14.454;2023-02-05T04:43:45;-3.60;42.40
41939;DHT22;23057;48.554;14.454;2023-02-05T04:46:15;-3.60;92.00
41939;DHT22;23057;48.554;14.454;2023-02-05T04:48:46;-3.50;99.90
41939;DHT22;23057;48.554;14.454;2023-02-05T04:51:17;-3.50;99.90
41939;DHT22;23057;48.554;14.454;2023-02-05T04:53:48;-3.50;99.90
41939;DHT22;23057;48.554;14.454;2023-02-05T04:56:18;-3.50;99.90
41939;DHT22;23057;48.554;14.454;2023-02-05T04:58:49;-3.60;99.90
41939;DHT22;23057;48.554;14.454;2023-02-05T05:01:20;-3.60;99.90
41939;DHT22;23057;48.554;14.454;2023-02-05T05:03:52;-3.60;99.90
41939;DHT22;23057;48.554;14.454;2023-02-05T05:06:23;-3.60;99.90
41939;DHT22;23057;48.554;14.454;2023-02-05T05:08:53;-3.70;99.90
41939;DHT22;23057;48.554;14.454;2023-02-05T05:11:24;-3.70;99.90
41939;DHT22;23057;48.554;14.454;2023-02-05T05:13:56;-3.70;99.90
41939;DHT22;23057;48.554;14.454;2023-02-05T05:16:27;-3.80;99.90
41939;DHT22;23057;48.554;14.454;2023-02-05T05:18:57;-3.90;99.90
41939;DHT22;23057;48.554;14.454;2023-02-05T05:21:28;-3.90;99.90
41939;DHT22;23057;48.554;14.454;2023-02-05T05:23:59;-3.90;99.90
41939;DHT22;23057;48.554;14.454;2023-02-05T05:26:30;-3.90;99.90
41939;DHT22;23057;48.554;14.454;2023-02-05T05:29:00;-3.80;99.90
41939;DHT22;23057;48.554;14.454;2023-02-05T05:31:31;-3.80;99.90
41939;DHT22;23057;48.554;14.454;2023-02-05T05:34:02;-3.80;99.90
41939;DHT22;23057;48.554;14.454;2023-02-05T05:36:33;-3.80;99.90
41939;DHT22;23057;48.554;14.454;2023-02-05T05:39:04;-3.80;99.90
41939;DHT22;23057;48.554;14.454;2023-02-05T05:41:53;-3.90;99.90
41939;DHT22;23057;48.554;14.454;2023-02-05T05:44:42;-3.90;99.90
41939;DHT22;23057;48.554;14.454;2023-02-05T05:47:13;-3.90;99.90
41939;DHT22;23057;48.554;14.454;2023-02-05T05:49:44;-3.90;99.90
41939;DHT22;23057;48.554;14.454;2023-02-05T05:52:16;-3.90;86.80
41939;DHT22;23057;48.554;14.454;2023-02-05T05:54:47;-3.90;68.10
41939;DHT22;23057;48.554;14.454;2023-02-05T05:57:17;-4.00;38.50
41939;DHT22;23057;48.554;14.454;2023-02-05T05:59:48;-3.90;39.70
41939;DHT22;23057;48.554;14.454;2023-02-05T06:02:19;-3.90;51.60
41939;DHT22;23057;48.554;14.454;2023-02-05T06:04:50;-3.90;25.90
41939;DHT22;23057;48.554;14.454;2023-02-05T06:07:20;-3.90;11.40
41939;DHT22;23057;48.554;14.454;2023-02-05T06:09:51;-4.00;1.00
41939;DHT22;23057;48.554;14.454;2023-02-05T06:12:22;-3.90;1.00
41939;DHT22;23057;48.554;14.454;2023-02-05T06:14:53;-3.90;1.00
41939;DHT22;23057;48.554;14.454;2023-02-05T06:17:23;-4.00;1.00
41939;DHT22;23057;48.554;14.454;2023-02-05T06:19:54;-4.00;1.00
41939;DHT22;23057;48.554;14.454;2023-02-05T06:22:25;-4.00;1.00
41939;DHT22;23057;48.554;14.454;2023-02-05T06:24:55;-4.00;1.00
41939;DHT22;23057;48.554;14.454;2023-02-05T06:27:26;-4.00;1.00
41939;DHT22;23057;48.554;14.454;2023-02-05T06:29:57;-4.00;1.00
41939;DHT22;23057;48.554;14.454;2023-02-05T06:32:28;-3.90;26.60
41939;DHT22;23057;48.554;14.454;2023-02-05T06:34:59;-3.90;1.00
41939;DHT22;23057;48.554;14.454;2023-02-05T06:37:30;-4.00;1.00
41939;DHT22;23057;48.554;14.454;2023-02-05T06:40:01;-4.00;1.00
41939;DHT22;23057;48.554;14.454;2023-02-05T06:42:32;-4.00;99.90
41939;DHT22;23057;48.554;14.454;2023-02-05T06:45:03;-4.00;99.90
41939;DHT22;23057;48.554;14.454;2023-02-05T06:47:34;-3.60;1.00
41939;DHT22;23057;48.554;14.454;2023-02-05T06:50:05;-3.20;99.90
41939;DHT22;23057;48.554;14.454;2023-02-05T06:52:36;-3.30;92.80
41939;DHT22;23057;48.554;14.454;2023-02-05T06:55:07;-3.60;1.00
41939;DHT22;23057;48.554;14.454;2023-02-05T06:57:38;-3.90;1.00
41939;DHT22;23057;48.554;14.454;2023-02-05T07:00:09;-4.20;1.00
41939;DHT22;23057;48.554;14.454;2023-02-05T07:02:41;-4.30;1.00
41939;DHT22;23057;48.554;14.454;2023-02-05T07:05:12;-4.30;1.00
41939;DHT22;23057;48.554;14.454;2023-02-05T07:07:42;-3.90;99.90
41939;DHT22;23057;48.554;14.454;2023-02-05T07:10:13;-1.80;43.90
41939;DHT22;23057;48.554;14.454;2023-02-05T07:12:44;-0.40;65.80
41939;DHT22;23057;48.554;14.454;2023-02-05T07:15:15;-0.30;99.90
41939;DHT22;23057;48.554;14.454;2023-02-05T07:17:46;-0.40;99.90
41939;DHT22;23057;48.554;14.454;2023-02-05T07:20:17;-0.70;99.60
41939;DHT22;23057;48.554;14.454;2023-02-05T07:22:48;-0.90;99.90
41939;DHT22;23057;48.554;14.454;2023-02-05T07:25:18;-1.00;91.30
41939;DHT22;23057;48.554;14.454;2023-02-05T07:27:49;-1.40;95.10
41939;DHT22;23057;48.554;14.454;2023-02-05T07:30:20;-1.30;98.20
41939;DHT22;23057;48.554;14.454;2023-02-05T07:32:51;-1.50;99.90
41939;DHT22;23057;48.554;14.454;2023-02-05T07:35:21;-1.60;99.90
41939;DHT22;23057;48.554;14.454;2023-02-05T07:37:52;-1.30;99.90
41939;DHT22;23057;48.554;14.454;2023-02-05T07:40:23;-1.20;83.50
41939;DHT22;23057;48.554;14.454;2023-02-05T07:42:54;-1.00;27.80
41939;DHT22;23057;48.554;14.454;2023-02-05T07:45:24;-0.80;24.90
41939;DHT22;23057;48.554;14.454;2023-02-05T07:47:55;-0.50;99.90
41939;DHT22;23057;48.554;14.454;2023-02-05T07:50:26;0.00;99.90
41939;DHT22;23057;48.554;14.454;2023-02-05T07:52:57;-0.20;1.00
41939;DHT22;23057;48.554;14.454;2023-02-05T07:55:27;-0.30;1.00
41939;DHT22;23057;48.554;14.454;2023-02-05T07:57:58;-0.20;1.00
41939;DHT22;23057;48.554;14.454;2023-02-05T08:00:29;-0.20;1.00
41939;DHT22;23057;48.554;14.454;2023-02-05T08:03:00;-0.20;1.00
41939;DHT22;23057;48.554;14.454;2023-02-05T08:05:31;-0.30;1.00
41939;DHT22;23057;48.554;14.454;2023-02-05T08:08:02;0.00;1.00
41939;DHT22;23057;48.554;14.454;2023-02-05T08:10:33;0.20;1.00
41939;DHT22;23057;48.554;14.454;2023-02-05T08:13:04;0.20;1.00
41939;DHT22;23057;48.554;14.454;2023-02-05T08:15:38;0.40;1.00
41939;DHT22;23057;48.554;14.454;2023-02-05T08:18:09;0.30;1.00
41939;DHT22;23057;48.554;14.454;2023-02-05T08:20:40;0.10;1.00
41939;DHT22;23057;48.554;14.454;2023-02-05T08:23:12;0.20;1.00
41939;DHT22;23057;48.554;14.454;2023-02-05T08:25:43;-0.10;1.00
41939;DHT22;23057;48.554;14.454;2023-02-05T08:28:14;0.00;1.00
41939;DHT22;23057;48.554;14.454;2023-02-05T08:30:45;0.40;1.00
41939;DHT22;23057;48.554;14.454;2023-02-05T08:33:16;0.50;1.00
41939;DHT22;23057;48.554;14.454;2023-02-05T08:35:47;0.30;1.00
41939;DHT22;23057;48.554;14.454;2023-02-05T08:38:18;0.20;1.00
41939;DHT22;23057;48.554;14.454;2023-02-05T08:40:49;-0.20;1.00
41939;DHT22;23057;48.554;14.454;2023-02-05T08:43:20;-0.40;1.00
41939;DHT22;23057;48.554;14.454;2023-02-05T08:45:50;-0.50;1.00
41939;DHT22;23057;48.554;14.454;2023-02-05T08:48:21;-0.40;1.00
41939;DHT22;23057;48.554;14.454;2023-02-05T08:50:52;-0.30;1.00
41939;DHT22;23057;48.554;14.454;2023-02-05T08:53:23;-0.50;1.00
41939;DHT22;23057;48.554;14.454;2023-02-05T08:55:57;-0.80;1.00
41939;DHT22;23057;48.554;14.454;2023-02-05T08:58:31;-1.30;1.00
41939;DHT22;23057;48.554;14.454;2023-02-05T09:01:06;-1.40;1.00
41939;DHT22;23057;48.554;14.454;2023-02-05T09:03:44;-1.30;1.00
41939;DHT22;23057;48.554;14.454;2023-02-05T09:06:15;-1.60;1.00
41939;DHT22;23057;48.554;14.454;2023-02-05T09:08:46;-1.20;8.70
41939;DHT22;23057;48.554;14.454;2023-02-05T09:11:20;-1.10;1.00
41939;DHT22;23057;48.554;14.454;2023-02-05T09:13:52;-0.90;1.00
41939;DHT22;23057;48.554;14.454;2023-02-05T09:16:23;-1.20;1.00
41939;DHT22;23057;48.554;14.454;2023-02-05T09:18:56;-1.40;1.00
41939;DHT22;23057;48.554;14.454;2023-02-05T09:21:28;-1.90;27.60
41939;DHT22;23057;48.554;14.454;2023-02-05T09:23:59;-1.50;74.70
41939;DHT22;23057;48.554;14.454;2023-02-05T09:26:30;-1.00;63.00
41939;DHT22;23057;48.554;14.454;2023-02-05T09:29:01;-0.80;1.00
41939;DHT22;23057;48.554;14.454;2023-02-05T09:31:32;-0.80;1.00
41939;DHT22;23057;48.554;14.454;2023-02-05T09:34:03;-1.30;1.00
41939;DHT22;23057;48.554;14.454;2023-02-05T09:36:33;-1.70;31.40
41939;DHT22;23057;48.554;14.454;2023-02-05T09:39:05;-1.70;69.70
41939;DHT22;23057;48.554;14.454;2023-02-05T09:44:39;-1.90;45.40
41939;DHT22;23057;48.554;14.454;2023-02-05T09:47:30;-1.70;86.90
41939;DHT22;23057;48.554;14.454;2023-02-05T09:50:13;-1.70;47.80
41939;DHT22;23057;48.554;14.454;2023-02-05T09:52:59;-1.10;51.70
41939;DHT22;23057;48.554;14.454;2023-02-05T09:55:36;-1.00;3.90
41939;DHT22;23057;48.554;14.454;2023-02-05T09:58:15;-1.20;1.00
41939;DHT22;23057;48.554;14.454;2023-02-05T10:00:53;-1.60;99.90
41939;DHT22;23057;48.554;14.454;2023-02-05T10:10:06;-1.80;45.70
41939;DHT22;23057;48.554;14.454;2023-02-05T10:16:09;-2.60;99.90
41939;DHT22;23057;48.554;14.454;2023-02-05T10:18:59;-2.40;99.90
41939;DHT22;23057;48.554;14.454;2023-02-05T10:28:07;-1.80;99.90
41939;DHT22;23057;48.554;14.454;2023-02-05T10:30:54;-1.10;84.50
41939;DHT22;23057;48.554;14.454;2023-02-05T10:33:49;-0.40;14.00
41939;DHT22;23057;48.554;14.454;2023-02-05T10:36:33;0.10;1.00
41939;DHT22;23057;48.554;14.454;2023-02-05T10:39:05;-0.20;1.00
41939;DHT22;23057;48.554;14.454;2023-02-05T10:41:47;0.00;1.00
41939;DHT22;23057;48.554;14.454;2023-02-05T10:44:27;0.00;1.00
41939;DHT22;23057;48.554;14.454;2023-02-05T10:47:05;-0.50;1.00
41939;DHT22;23057;48.554;14.454;2023-02-05T10:49:53;-1.30;1.00
41939;DHT22;23057;48.554;14.454;2023-02-05T10:52:32;-1.00;1.00
41939;DHT22;23057;48.554;14.454;2023-02-05T10:55:03;-0.70;1.00
41939;DHT22;23057;48.554;14.454;2023-02-05T10:57:34;-1.00;1.00
41939;DHT22;23057;48.554;14.454;2023-02-05T11:00:11;-1.80;1.00
41939;DHT22;23057;48.554;14.454;2023-02-05T11:02:52;-2.10;22.90
41939;DHT22;23057;48.554;14.454;2023-02-05T11:05:33;-2.10;64.20
41939;DHT22;23057;48.554;14.454;2023-02-05T11:11:18;-1.70;1.00
41939;DHT22;23057;48.554;14.454;2023-02-05T11:13:53;-2.20;37.00
41939;DHT22;23057;48.554;14.454;2023-02-05T11:16:37;-2.30;33.30
41939;DHT22;23057;48.554;14.454;2023-02-05T11:19:19;-2.20;52.50
41939;DHT22;23057;48.554;14.454;2023-02-05T11:24:37;-2.00;43.30
41939;DHT22;23057;48.554;14.454;2023-02-05T11:27:18;-1.90;66.30
41939;DHT22;23057;48.554;14.454;2023-02-05T11:30:16;-2.00;34.00
41939;DHT22;23057;48.554;14.454;2023-02-05T11:33:16;-2.10;68.60
41939;DHT22;23057;48.554;14.454;2023-02-05T11:38:53;-2.10;63.20
41939;DHT22;23057;48.554;14.454;2023-02-05T11:44:19;-2.30;99.90
41939;DHT22;23057;48.554;14.454;2023-02-05T11:47:04;-2.20;85.80
41939;DHT22;23057;48.554;14.454;2023-02-05T11:49:38;-2.30;99.90
41939;DHT22;23057;48.554;14.454;2023-02-05T11:52:11;-2.20;52.10
41939;DHT22;23057;48.554;14.454;2023-02-05T11:54:44;-2.10;27.90
41939;DHT22;23057;48.554;14.454;2023-02-05T12:02:38;-1.60;1.00
41939;DHT22;23057;48.554;14.454;2023-02-05T12:07:45;-0.70;1.00
41939;DHT22;23057;48.554;14.454;2023-02-05T12:10:45;-0.40;1.00
41939;DHT22;23057;48.554;14.454;2023-02-05T12:19:49;-1.50;1.00
41939;DHT22;23057;48.554;14.454;2023-02-05T12:34:19;-1.60;1.00
41939;DHT22;23057;48.554;14.454;2023-02-05T12:43:30;-1.60;1.00
41939;DHT22;23057;48.554;14.454;2023-02-05T12:46:38;-1.50;1.00
41939;DHT22;23057;48.554;14.454;2023-02-05T12:52:36;-1.50;1.00
41939;DHT22;23057;48.554;14.454;2023-02-05T13:02:04;-1.70;1.00
41939;DHT22;23057;48.554;14.454;2023-02-05T13:11:55;-1.30;1.00
41939;DHT22;23057;48.554;14.454;2023-02-05T13:14:29;-1.40;1.00
41939;DHT22;23057;48.554;14.454;2023-02-05T13:17:14;-1.50;1.00
41939;DHT22;23057;48.554;14.454;2023-02-05T13:19:57;-1.10;1.00
41939;DHT22;23057;48.554;14.454;2023-02-05T13:22:39;-1.10;1.00
41939;DHT22;23057;48.554;14.454;2023-02-05T13:25:43;-1.20;1.00
41939;DHT22;23057;48.554;14.454;2023-02-05T13:28:55;-1.20;1.00
41939;DHT22;23057;48.554;14.454;2023-02-05T13:31:41;-1.50;1.00
41939;DHT22;23057;48.554;14.454;2023-02-05T13:34:18;-1.70;1.00
41939;DHT22;23057;48.554;14.454;2023-02-05T13:48:54;-1.70;1.00
41939;DHT22;23057;48.554;14.454;2023-02-05T14:00:38;-1.60;1.00
41939;DHT22;23057;48.554;14.454;2023-02-05T14:03:21;-1.50;1.00
41939;DHT22;23057;48.554;14.454;2023-02-05T14:06:11;-1.10;1.00
41939;DHT22;23057;48.554;14.454;2023-02-05T14:11:56;-1.40;1.00
41939;DHT22;23057;48.554;14.454;2023-02-05T14:14:34;-1.70;1.00
41939;DHT22;23057;48.554;14.454;2023-02-05T14:19:56;-1.60;1.00
41939;DHT22;23057;48.554;14.454;2023-02-05T14:38:53;-1.30;1.00
41939;DHT22;23057;48.554;14.454;2023-02-05T14:41:29;-1.40;1.00
41939;DHT22;23057;48.554;14.454;2023-02-05T14:44:24;-1.60;1.00
41939;DHT22;23057;48.554;14.454;2023-02-05T14:47:17;-1.50;1.00
41939;DHT22;23057;48.554;14.454;2023-02-05T14:50:02;-1.50;1.00
41939;DHT22;23057;48.554;14.454;2023-02-05T14:52:43;-1.60;1.00
41939;DHT22;23057;48.554;14.454;2023-02-05T14:55:21;-1.50;1.00
41939;DHT22;23057;48.554;14.454;2023-02-05T14:58:16;-1.50;1.00
41939;DHT22;23057;48.554;14.454;2023-02-05T15:04:00;-1.60;1.00
41939;DHT22;23057;48.554;14.454;2023-02-05T15:06:38;-1.70;1.00
41939;DHT22;23057;48.554;14.454;2023-02-05T15:09:14;-1.80;1.00
41939;DHT22;23057;48.554;14.454;2023-02-05T15:14:53;-1.90;1.00
41939;DHT22;23057;48.554;14.454;2023-02-05T15:20:04;-2.10;1.00
41939;DHT22;23057;48.554;14.454;2023-02-05T15:22:51;-2.20;1.00
41939;DHT22;23057;48.554;14.454;2023-02-05T15:25:31;-2.20;1.00
41939;DHT22;23057;48.554;14.454;2023-02-05T15:28:20;-2.30;1.00
41939;DHT22;23057;48.554;14.454;2023-02-05T15:34:38;-2.40;1.00
41939;DHT22;23057;48.554;14.454;2023-02-05T15:37:31;-2.40;1.00
41939;DHT22;23057;48.554;14.454;2023-02-05T15:40:15;-2.40;1.00
41939;DHT22;23057;48.554;14.454;2023-02-05T15:42:57;-2.40;1.00
41939;DHT22;23057;48.554;14.454;2023-02-05T15:46:01;-2.50;1.00
41939;DHT22;23057;48.554;14.454;2023-02-05T15:48:36;-2.50;1.00
41939;DHT22;23057;48.554;14.454;2023-02-05T15:51:12;-2.60;1.00
41939;DHT22;23057;48.554;14.454;2023-02-05T15:53:44;-2.60;1.00
41939;DHT22;23057;48.554;14.454;2023-02-05T16:05:14;-2.70;1.00
41939;DHT22;23057;48.554;14.454;2023-02-05T16:07:48;-2.80;1.00
41939;DHT22;23057;48.554;14.454;2023-02-05T16:10:29;-2.70;1.10
41939;DHT22;23057;48.554;14.454;2023-02-05T16:13:04;-2.70;1.00
41939;DHT22;23057;48.554;14.454;2023-02-05T16:15:52;-2.70;1.00
41939;DHT22;23057;48.554;14.454;2023-02-05T16:18:37;-2.90;1.00
41939;DHT22;23057;48.554;14.454;2023-02-05T16:21:25;-2.90;3.30
41939;DHT22;23057;48.554;14.454;2023-02-05T16:24:14;-2.90;10.90
41939;DHT22;23057;48.554;14.454;2023-02-05T16:27:43;-2.90;24.30
41939;DHT22;23057;48.554;14.454;2023-02-05T16:30:06;-2.90;23.10
41939;DHT22;23057;48.554;14.454;2023-02-05T16:33:06;-2.90;12.90
41939;DHT22;23057;48.554;14.454;2023-02-05T16:35:47;-3.00;19.50
41939;DHT22;23057;48.554;14.454;2023-02-05T16:38:18;-3.00;28.80
41939;DHT22;23057;48.554;14.454;2023-02-05T16:40:53;-3.00;41.90
41939;DHT22;23057;48.554;14.454;2023-02-05T16:43:29;-3.00;76.30
41939;DHT22;23057;48.554;14.454;2023-02-05T16:51:37;-3.30;82.90
41939;DHT22;23057;48.554;14.454;2023-02-05T16:54:26;-3.50;87.00
41939;DHT22;23057;48.554;14.454;2023-02-05T16:57:02;-3.50;99.90
41939;DHT22;23057;48.554;14.454;2023-02-05T16:59:58;-3.50;99.90
41939;DHT22;23057;48.554;14.454;2023-02-05T17:02:35;-3.70;99.90
41939;DHT22;23057;48.554;14.454;2023-02-05T17:08:03;-4.00;99.90
41939;DHT22;23057;48.554;14.454;2023-02-05T17:10:47;-4.10;99.90
41939;DHT22;23057;48.554;14.454;2023-02-05T17:13:25;-4.10;99.90
41939;DHT22;23057;48.554;14.454;2023-02-05T17:18:58;-4.10;99.90
41939;DHT22;23057;48.554;14.454;2023-02-05T17:21:31;-1.60;99.90
41939;DHT22;23057;48.554;14.454;2023-02-05T17:24:05;-2.00;99.90
41939;DHT22;23057;48.554;14.454;2023-02-05T17:26:38;-2.90;1.00
41939;DHT22;23057;48.554;14.454;2023-02-05T17:29:13;-3.40;41.00
41939;DHT22;23057;48.554;14.454;2023-02-05T17:31:45;-3.80;99.90
41939;DHT22;23057;48.554;14.454;2023-02-05T17:34:15;-4.00;99.90
41939;DHT22;23057;48.554;14.454;2023-02-05T17:36:46;-4.10;96.40
41939;DHT22;23057;48.554;14.454;2023-02-05T17:39:17;-4.20;8.20
41939;DHT22;23057;48.554;14.454;2023-02-05T17:41:47;-4.30;1.00
41939;DHT22;23057;48.554;14.454;2023-02-05T17:44:34;-4.50;1.00
41939;DHT22;23057;48.554;14.454;2023-02-05T17:47:07;-4.60;1.00
41939;DHT22;23057;48.554;14.454;2023-02-05T17:49:39;-4.60;1.00
41939;DHT22;23057;48.554;14.454;2023-02-05T17:52:11;-4.60;1.00
41939;DHT22;23057;48.554;14.454;2023-02-05T17:54:42;-4.60;1.00
41939;DHT22;23057;48.554;14.454;2023-02-05T17:57:16;-4.60;1.00
41939;DHT22;23057;48.554;14.454;2023-02-05T17:59:51;-4.70;1.00
41939;DHT22;23057;48.554;14.454;2023-02-05T18:02:21;-4.60;11.50
41939;DHT22;23057;48.554;14.454;2023-02-05T18:04:52;-4.70;99.90
41939;DHT22;23057;48.554;14.454;2023-02-05T18:07:28;-5.10;1.00
41939;DHT22;23057;48.554;14.454;2023-02-05T18:10:04;-5.30;1.00
41939;DHT22;23057;48.554;14.454;2023-02-05T18:12:36;-5.30;18.50
41939;DHT22;23057;48.554;14.454;2023-02-05T18:15:07;-5.30;57.50
41939;DHT22;23057;48.554;14.454;2023-02-05T18:17:40;-5.40;54.50
41939;DHT22;23057;48.554;14.454;2023-02-05T18:20:11;-5.50;1.00
41939;DHT22;23057;48.554;14.454;2023-02-05T18:22:44;-5.60;1.00
41939;DHT22;23057;48.554;14.454;2023-02-05T18:25:15;-5.80;1.00
41939;DHT22;23057;48.554;14.454;2023-02-05T18:27:46;-5.90;1.00
41939;DHT22;23057;48.554;14.454;2023-02-05T18:30:18;-6.00;1.00
41939;DHT22;23057;48.554;14.454;2023-02-05T18:32:48;-5.90;1.00
41939;DHT22;23057;48.554;14.454;2023-02-05T18:35:19;-5.90;59.80
41939;DHT22;23057;48.554;14.454;2023-02-05T18:37:50;-5.80;76.50
41939;DHT22;23057;48.554;14.454;2023-02-05T18:40:20;-6.00;72.00
41939;DHT22;23057;48.554;14.454;2023-02-05T18:42:52;-6.00;99.90
41939;DHT22;23057;48.554;14.454;2023-02-05T18:45:24;-6.00;99.90
41939;DHT22;23057;48.554;14.454;2023-02-05T18:47:55;-6.00;99.90
41939;DHT22;23057;48.554;14.454;2023-02-05T18:50:25;-6.10;99.90
41939;DHT22;23057;48.554;14.454;2023-02-05T18:52:59;-6.10;99.90
41939;DHT22;23057;48.554;14.454;2023-02-05T18:55:30;-6.10;99.90
41939;DHT22;23057;48.554;14.454;2023-02-05T18:58:04;-5.90;1.00
41939;DHT22;23057;48.554;14.454;2023-02-05T19:00:36;-5.90;12.90
41939;DHT22;23057;48.554;14.454;2023-02-05T19:03:06;-6.00;1.00
41939;DHT22;23057;48.554;14.454;2023-02-05T19:05:37;-6.00;1.00
41939;DHT22;23057;48.554;14.454;2023-02-05T19:08:08;-6.00;99.90
41939;DHT22;23057;48.554;14.454;2023-02-05T19:10:39;-6.00;99.90
41939;DHT22;23057;48.554;14.454;2023-02-05T19:13:10;-6.10;99.90
41939;DHT22;23057;48.554;14.454;2023-02-05T19:15:41;-6.20;99.90